Time;durP1;ratioP1;P1;durP2;ratioP2;P2;SDS_P1;SDS_P2;PMS_P1;PMS_P2;Temp;Humidity;BMP_temperature;BMP_pressure;BME280_temperature;BME280_humidity;BME280_pressure;Samples;Min_cycle;Max_cycle;Signal;HPM_P1;HPM_P2
2021/08/11 00:01:46;;;;;;;4.68;1.90;;;;;;;16.01;90.59;100696.63;4884704;29;20065;-86
2021/08/11 00:04:11;;;;;;;4.05;2.10;;;;;;;16.07;90.02;100709.34;4916295;29;20060;-87
2021/08/11 00:06:37;;;;;;;4.60;1.95;;;;;;;16.00;89.83;100694.94;4873760;29;20033;-88
2021/08/11 00:09:03;;;;;;;4.28;1.83;;;;;;;16.08;90.09;100702.84;4883729;29;20043;-87
2021/08/11 00:11:32;;;;;;;4.00;1.70;;;;;;;16.09;90.18;100706.38;4884107;29;20105;-87
2021/08/11 00:13:58;;;;;;;4.93;2.08;;;;;;;15.98;89.95;100678.06;4878079;29;20040;-85
2021/08/11 00:16:24;;;;;;;4.18;1.50;;;;;;;15.94;89.94;100668.69;4908143;29;20033;-86
2021/08/11 00:18:49;;;;;;;4.50;1.70;;;;;;;15.93;89.87;100659.72;4888967;29;20029;-87
2021/08/11 00:21:15;;;;;;;4.05;1.90;;;;;;;16.10;89.79;100689.09;4890086;29;20044;-88
2021/08/11 00:23:40;;;;;;;9.63;2.08;;;;;;;16.09;89.76;100688.25;4886967;29;20029;-87
2021/08/11 00:26:06;;;;;;;4.18;1.88;;;;;;;15.93;89.77;100661.59;4890868;29;20060;-88
2021/08/11 00:28:31;;;;;;;4.45;1.92;;;;;;;16.13;89.94;100688.66;4883043;29;20716;-86
2021/08/11 00:30:57;;;;;;;3.33;1.48;;;;;;;15.92;89.68;100654.50;4886452;29;20037;-87
2021/08/11 00:33:23;;;;;;;6.22;2.22;;;;;;;16.11;89.73;100675.28;4885939;29;20513;-86
2021/08/11 00:35:48;;;;;;;4.47;1.95;;;;;;;15.97;89.79;100655.53;4881911;29;20798;-88
2021/08/11 00:38:14;;;;;;;4.30;1.90;;;;;;;16.05;89.53;100665.31;4877885;29;20048;-87
2021/08/11 00:40:39;;;;;;;5.13;1.88;;;;;;;16.07;89.57;100665.94;4885770;29;20056;-85
2021/08/11 00:43:06;;;;;;;4.47;1.85;;;;;;;15.94;89.60;100633.44;4901168;29;20044;-86
2021/08/11 00:45:32;;;;;;;6.00;1.70;;;;;;;16.01;89.69;100654.06;4898724;29;20028;-88
2021/08/11 00:47:57;;;;;;;6.78;1.85;;;;;;;16.06;89.60;100656.13;4874133;29;20140;-86
2021/08/11 00:50:23;;;;;;;6.47;2.08;;;;;;;16.02;89.69;100652.19;4888288;29;20363;-87
2021/08/11 00:52:48;;;;;;;4.28;1.70;;;;;;;16.00;89.68;100652.38;4874838;29;20084;-87
2021/08/11 00:55:15;;;;;;;3.70;1.75;;;;;;;16.03;89.44;100637.56;4885047;29;20138;-86
2021/08/11 00:57:41;;;;;;;4.85;2.33;;;;;;;16.04;89.65;100650.09;4883299;29;20029;-85
2021/08/11 01:00:07;;;;;;;6.00;1.88;;;;;;;16.00;89.88;100638.81;4881072;29;20041;-86
2021/08/11 01:02:33;;;;;;;4.85;1.80;;;;;;;16.01;89.78;100632.38;4886607;29;20037;-87
2021/08/11 01:04:59;;;;;;;5.32;1.83;;;;;;;15.99;89.68;100642.59;4888984;29;20092;-86
2021/08/11 01:07:27;;;;;;;5.10;2.08;;;;;;;16.04;89.60;100642.78;4888385;29;20101;-86
2021/08/11 01:09:53;;;;;;;4.35;2.03;;;;;;;16.05;89.66;100640.91;4884485;29;20033;-87
2021/08/11 01:12:22;;;;;;;5.65;2.10;;;;;;;16.05;89.36;100633.59;4881991;29;20097;-86
2021/08/11 01:14:49;;;;;;;4.88;2.35;;;;;;;16.07;89.26;100624.44;4874096;29;20036;-86
2021/08/11 01:17:15;;;;;;;3.78;1.60;;;;;;;16.05;89.19;100621.91;4862103;29;20032;-85
2021/08/11 01:19:40;;;;;;;4.47;2.00;;;;;;;16.08;89.25;100617.94;4869744;29;20044;-85
2021/08/11 01:22:10;;;;;;;4.60;1.88;;;;;;;16.06;89.28;100618.16;4899251;29;20044;-85
2021/08/11 01:25:17;;;;;;;4.70;2.17;;;;;;;16.08;89.18;100612.53;4857002;29;20033;-85
2021/08/11 01:28:30;;;;;;;4.07;2.03;;;;;;;16.10;89.17;100624.81;4859434;29;20043;-86
2021/08/11 01:31:07;;;;;;;4.05;1.77;;;;;;;16.12;89.19;100628.16;4855525;29;20049;-85
2021/08/11 01:33:48;;;;;;;3.53;1.65;;;;;;;16.13;89.08;100634.41;4875135;29;20044;-85
2021/08/11 01:36:20;;;;;;;4.70;2.15;;;;;;;16.12;89.10;100628.16;4866783;29;20622;-86
2021/08/11 01:39:03;;;;;;;5.23;2.43;;;;;;;16.06;89.17;100623.56;4877607;29;20131;-84
2021/08/11 01:41:33;;;;;;;5.43;2.20;;;;;;;16.02;89.10;100623.19;4882468;29;20053;-86
2021/08/11 01:43:59;;;;;;;7.90;2.00;;;;;;;16.07;89.11;100613.59;4886708;29;20057;-86
2021/08/11 01:46:26;;;;;;;5.45;2.25;;;;;;;16.05;89.28;100606.47;4886099;29;20392;-86
2021/08/11 01:48:52;;;;;;;3.97;1.90;;;;;;;16.00;89.40;100581.88;4869786;29;20032;-87
2021/08/11 01:51:18;;;;;;;5.05;2.05;;;;;;;15.97;89.33;100584.19;4871973;29;20021;-87
2021/08/11 01:53:44;;;;;;;3.80;1.55;;;;;;;15.83;89.52;100564.44;4889589;29;20036;-88
2021/08/11 01:56:09;;;;;;;5.97;1.90;;;;;;;15.92;89.58;100578.59;4864582;29;20494;-85
2021/08/11 01:58:35;;;;;;;4.70;1.83;;;;;;;15.90;89.94;100583.38;4873963;29;20032;-85
2021/08/11 02:01:07;;;;;;;4.57;1.67;;;;;;;15.90;89.84;100592.34;4864423;29;20033;-85
2021/08/11 02:03:32;;;;;;;5.15;1.80;;;;;;;15.87;89.73;100583.81;4867824;29;20127;-84
2021/08/11 02:05:58;;;;;;;3.97;2.10;;;;;;;15.94;89.74;100584.63;4862203;29;20112;-85
2021/08/11 02:08:24;;;;;;;2.58;1.35;;;;;;;15.92;89.58;100567.75;4865859;29;20035;-85
2021/08/11 02:10:55;;;;;;;4.78;1.40;;;;;;;15.95;89.59;100572.72;4876708;29;20032;-85
2021/08/11 02:13:21;;;;;;;3.80;2.55;;;;;;;15.94;89.54;100565.66;4874607;29;20380;-85
2021/08/11 02:15:50;;;;;;;4.13;1.50;;;;;;;15.96;89.64;100547.28;4865213;29;20031;-84
2021/08/11 02:18:16;;;;;;;3.00;1.45;;;;;;;15.94;89.50;100541.25;4865255;29;20040;-85
2021/08/11 02:20:41;;;;;;;3.65;1.55;;;;;;;15.95;89.24;100553.75;4874924;29;20029;-84
2021/08/11 02:23:07;;;;;;;3.15;1.50;;;;;;;15.96;88.96;100536.44;4859495;29;20118;-85
2021/08/11 02:25:34;;;;;;;4.25;1.25;;;;;;;15.95;89.18;100543.72;4873739;29;20482;-85
2021/08/11 02:28:16;;;;;;;4.65;1.35;;;;;;;16.02;89.20;100551.84;4888876;29;20031;-84
2021/08/11 02:31:00;;;;;;;2.78;1.40;;;;;;;16.04;89.05;100541.63;4871412;29;20136;-85
2021/08/11 02:33:34;;;;;;;3.75;1.60;;;;;;;16.01;89.16;100529.31;4861123;29;20132;-84
2021/08/11 02:36:08;;;;;;;3.55;1.58;;;;;;;15.99;89.32;100553.09;4876726;29;20112;-85
2021/08/11 02:38:37;;;;;;;3.72;1.95;;;;;;;16.02;89.40;100538.28;4871805;29;20111;-85
2021/08/11 02:41:16;;;;;;;2.85;1.50;;;;;;;15.96;89.31;100534.56;4879380;29;20041;-84
2021/08/11 02:43:51;;;;;;;2.70;1.30;;;;;;;15.98;89.47;100553.31;4884728;29;20033;-85
2021/08/11 02:46:19;;;;;;;3.78;1.52;;;;;;;15.99;89.71;100541.44;4888104;29;20029;-86
2021/08/11 02:48:54;;;;;;;4.20;1.45;;;;;;;15.99;89.62;100536.84;4876737;29;20033;-85
2021/08/11 02:51:20;;;;;;;3.60;1.58;;;;;;;15.97;90.00;100538.94;4864573;29;20056;-85
2021/08/11 02:53:45;;;;;;;3.40;1.45;;;;;;;15.96;89.94;100528.31;4862782;29;20056;-84
2021/08/11 02:56:14;;;;;;;2.92;1.17;;;;;;;15.97;90.28;100528.06;4873135;29;20085;-84
2021/08/11 03:01:15;;;;;;;3.58;1.50;;;;;;;15.94;89.98;100522.25;4945962;23;20096;-87
2021/08/11 03:03:41;;;;;;;6.13;1.80;;;;;;;15.95;90.43;100519.31;4866524;29;20074;-87
2021/08/11 03:06:06;;;;;;;2.90;1.58;;;;;;;15.95;90.61;100527.44;4885798;29;20056;-86
2021/08/11 03:08:33;;;;;;;5.97;2.03;;;;;;;15.93;90.60;100526.88;4882226;29;20493;-87
2021/08/11 03:10:58;;;;;;;3.97;1.70;;;;;;;15.93;90.73;100520.59;4883445;29;20150;-88
2021/08/11 03:13:24;;;;;;;4.82;1.80;;;;;;;15.66;90.92;100458.34;4868035;29;20049;-85
2021/08/11 03:15:51;;;;;;;4.93;1.67;;;;;;;15.94;90.90;100506.00;4860709;29;20123;-86
2021/08/11 03:18:17;;;;;;;7.93;2.20;;;;;;;15.93;90.88;100512.44;4871196;29;20136;-86
2021/08/11 03:20:42;;;;;;;5.53;1.80;;;;;;;15.92;90.91;100491.81;4865729;29;20412;-86
2021/08/11 03:23:12;;;;;;;5.07;2.40;;;;;;;15.92;90.90;100486.41;4862818;29;20561;-86
2021/08/11 03:25:37;;;;;;;4.65;1.77;;;;;;;15.86;91.01;100479.13;4866983;29;20033;-88
2021/08/11 03:28:03;;;;;;;5.53;2.28;;;;;;;15.92;90.76;100478.25;4872135;29;20680;-85
2021/08/11 03:30:29;;;;;;;6.28;1.60;;;;;;;15.77;90.95;100452.28;4857663;29;20044;-85
2021/08/11 03:32:54;;;;;;;4.55;1.58;;;;;;;15.91;91.18;100476.63;4873918;29;20029;-85
2021/08/11 03:35:20;;;;;;;5.70;1.67;;;;;;;15.89;91.20;100460.53;4865737;29;20040;-85
2021/08/11 03:37:45;;;;;;;3.25;1.33;;;;;;;15.91;91.26;100471.19;4850002;29;20040;-85
2021/08/11 03:40:12;;;;;;;4.63;1.30;;;;;;;15.88;91.39;100455.34;4859865;29;20029;-85
2021/08/11 03:42:37;;;;;;;5.38;1.90;;;;;;;15.88;91.25;100452.63;4858387;29;20033;-85
2021/08/11 03:45:04;;;;;;;5.13;1.50;;;;;;;15.90;91.29;100450.53;4863881;29;20030;-86
2021/08/11 03:47:30;;;;;;;3.03;1.40;;;;;;;15.91;91.50;100446.78;4868395;29;20112;-85
2021/08/11 03:49:55;;;;;;;5.88;1.63;;;;;;;15.91;91.23;100431.34;4855298;29;20084;-85
2021/08/11 03:52:20;;;;;;;3.83;1.55;;;;;;;15.93;91.35;100437.38;4870961;29;20034;-85
2021/08/11 03:54:46;;;;;;;3.22;1.63;;;;;;;15.97;91.24;100438.59;4857569;29;20446;-86
2021/08/11 03:57:11;;;;;;;3.05;1.40;;;;;;;15.91;91.23;100423.22;4882055;29;20079;-85
2021/08/11 03:59:37;;;;;;;3.83;1.75;;;;;;;15.79;91.32;100400.53;4869050;29;20068;-85
2021/08/11 04:02:02;;;;;;;2.45;1.45;;;;;;;15.91;91.46;100438.66;4868779;29;20029;-85
2021/08/11 04:04:28;;;;;;;2.15;1.00;;;;;;;15.95;91.45;100437.16;4866543;29;20040;-85
2021/08/11 04:06:53;;;;;;;4.57;1.33;;;;;;;15.97;91.61;100437.75;4865996;29;20041;-85
2021/08/11 04:09:19;;;;;;;2.13;1.10;;;;;;;15.94;91.76;100421.94;4857317;29;20033;-85
2021/08/11 04:11:45;;;;;;;2.70;1.40;;;;;;;15.94;91.80;100430.06;4857220;29;20060;-85
2021/08/11 04:14:12;;;;;;;3.28;1.20;;;;;;;15.89;91.83;100427.19;4870054;29;20025;-86
2021/08/11 04:16:38;;;;;;;2.05;1.10;;;;;;;15.94;92.13;100440.91;4864327;29;20047;-85
2021/08/11 04:19:03;;;;;;;2.47;1.02;;;;;;;15.93;92.24;100429.25;4857388;29;20250;-86
2021/08/11 04:21:28;;;;;;;3.63;1.70;;;;;;;15.85;92.27;100417.81;4858156;29;20044;-85
2021/08/11 04:23:54;;;;;;;2.97;1.20;;;;;;;15.89;92.41;100438.03;4849481;29;20039;-85
2021/08/11 04:26:19;;;;;;;3.53;1.10;;;;;;;15.87;92.62;100423.84;4865013;29;20045;-85
2021/08/11 04:28:45;;;;;;;2.45;1.17;;;;;;;15.82;92.47;100406.38;4863713;29;20025;-85
2021/08/11 04:31:11;;;;;;;1.60;0.85;;;;;;;15.89;92.66;100428.00;4869059;29;20035;-85
2021/08/11 04:33:36;;;;;;;2.03;1.05;;;;;;;15.83;92.78;100415.34;4855646;29;20037;-85
2021/08/11 04:36:02;;;;;;;3.20;1.02;;;;;;;15.89;92.90;100425.31;4868354;29;20025;-86
2021/08/11 04:38:27;;;;;;;3.90;1.10;;;;;;;15.80;93.01;100408.47;4884516;29;20413;-85
2021/08/11 04:40:53;;;;;;;2.42;1.10;;;;;;;15.85;93.13;100401.56;4856130;29;20425;-85
2021/08/11 04:43:18;;;;;;;3.15;1.13;;;;;;;15.83;93.05;100390.94;4862049;29;20036;-86
2021/08/11 04:45:44;;;;;;;2.67;1.00;;;;;;;15.85;93.08;100407.81;4873392;29;20032;-86
2021/08/11 04:48:09;;;;;;;3.22;1.10;;;;;;;15.85;93.46;100399.69;4866387;29;20044;-85
2021/08/11 04:50:35;;;;;;;3.10;1.48;;;;;;;15.90;93.33;100401.72;4862115;29;20406;-85
2021/08/11 04:53:00;;;;;;;2.28;1.00;;;;;;;15.86;93.46;100398.63;4871841;29;20033;-85
2021/08/11 04:55:26;;;;;;;4.07;1.02;;;;;;;15.71;93.34;100369.13;4873569;29;20097;-85
2021/08/11 04:57:51;;;;;;;3.05;1.20;;;;;;;15.84;93.54;100381.75;4874071;29;20054;-85
2021/08/11 05:00:17;;;;;;;2.83;1.13;;;;;;;15.88;93.51;100390.25;4857394;29;20033;-85
2021/08/11 05:02:43;;;;;;;1.67;0.98;;;;;;;15.85;93.46;100382.56;4869542;29;20867;-86
2021/08/11 05:05:09;;;;;;;3.03;1.10;;;;;;;15.95;93.55;100397.28;4871566;29;20068;-85
2021/08/11 05:07:35;;;;;;;2.95;1.13;;;;;;;15.78;93.52;100364.47;4858171;29;20040;-85
2021/08/11 05:10:00;;;;;;;2.50;1.10;;;;;;;15.99;93.13;100403.13;4868858;29;20029;-85
2021/08/11 05:12:26;;;;;;;2.90;1.13;;;;;;;16.03;93.10;100379.94;4871876;29;20486;-85
2021/08/11 05:14:52;;;;;;;3.45;1.70;;;;;;;16.00;93.33;100385.78;4857761;29;20033;-85
2021/08/11 05:17:21;;;;;;;2.38;1.23;;;;;;;15.99;93.09;100371.41;4867921;29;20044;-86
2021/08/11 05:19:47;;;;;;;4.07;1.48;;;;;;;15.76;93.36;100352.19;4871152;29;20060;-86
2021/08/11 05:22:14;;;;;;;2.90;1.60;;;;;;;15.98;93.69;100372.47;4854699;29;20037;-85
2021/08/11 05:24:39;;;;;;;3.42;1.80;;;;;;;15.82;93.68;100345.88;4871491;29;20056;-85
2021/08/11 05:27:05;;;;;;;5.05;2.22;;;;;;;15.99;93.81;100389.56;4867454;29;20025;-85
2021/08/11 05:29:31;;;;;;;3.38;1.92;;;;;;;15.96;94.02;100392.72;4860539;29;20295;-86
2021/08/11 05:31:57;;;;;;;3.38;1.50;;;;;;;15.92;94.31;100386.91;4863956;29;20088;-85
2021/08/11 05:34:22;;;;;;;4.78;1.80;;;;;;;15.93;94.27;100377.72;4857661;29;20025;-86
2021/08/11 05:36:48;;;;;;;2.67;1.48;;;;;;;15.94;94.62;100383.97;4854503;29;20036;-85
2021/08/11 05:39:13;;;;;;;3.70;1.95;;;;;;;15.91;94.61;100376.28;4854634;29;20041;-86
2021/08/11 05:41:39;;;;;;;3.30;1.17;;;;;;;15.94;94.69;100392.94;4868629;29;20030;-86
2021/08/11 05:44:05;;;;;;;3.88;1.80;;;;;;;15.89;94.88;100389.22;4872045;29;20054;-87
2021/08/11 05:46:31;;;;;;;3.50;1.60;;;;;;;15.89;94.88;100389.22;4855843;29;20040;-87
2021/08/11 05:48:56;;;;;;;3.42;1.52;;;;;;;15.80;95.30;100381.38;4873512;29;20858;-85
2021/08/11 05:51:22;;;;;;;3.92;1.58;;;;;;;15.86;95.58;100405.94;4869510;29;20024;-86
2021/08/11 05:53:47;;;;;;;4.00;2.05;;;;;;;15.82;95.83;100438.06;4863807;29;20033;-87
2021/08/11 05:56:13;;;;;;;1.73;0.75;;;;;;;15.65;95.25;100437.72;4861858;29;20495;-86
2021/08/11 05:58:38;;;;;;;3.15;0.80;;;;;;;15.47;94.81;100434.91;4864933;29;20028;-86
2021/08/11 06:01:04;;;;;;;0.75;0.70;;;;;;;15.34;95.02;100450.16;4866022;29;20030;-86
2021/08/11 06:03:29;;;;;;;1.48;0.55;;;;;;;15.08;95.00;100426.72;4869051;29;20087;-87
2021/08/11 06:05:54;;;;;;;0.80;0.50;;;;;;;15.14;95.33;100454.84;4872179;29;20088;-88
2021/08/11 06:08:20;;;;;;;1.77;0.40;;;;;;;15.07;95.44;100452.13;4859629;29;20028;-86
2021/08/11 06:10:45;;;;;;;1.60;0.50;;;;;;;15.07;95.44;100459.44;4857943;29;20044;-86
2021/08/11 06:13:11;;;;;;;3.40;0.77;;;;;;;14.99;95.12;100454.25;4883946;29;20029;-86
2021/08/11 06:15:36;;;;;;;2.63;0.80;;;;;;;14.91;95.03;100466.97;4858783;29;20041;-86
2021/08/11 06:18:02;;;;;;;2.72;1.00;;;;;;;14.84;94.92;100468.84;4883102;29;20090;-86
2021/08/11 06:20:27;;;;;;;3.17;0.98;;;;;;;14.83;95.17;100471.78;4855109;29;20032;-86
2021/08/11 06:22:52;;;;;;;2.50;1.00;;;;;;;14.80;94.87;100474.91;4855853;29;20060;-86
2021/08/11 06:25:18;;;;;;;1.85;0.85;;;;;;;14.73;94.77;100475.72;4861604;29;20116;-86
2021/08/11 06:27:44;;;;;;;1.85;0.90;;;;;;;14.67;94.76;100467.63;4874364;29;20044;-86
2021/08/11 06:30:11;;;;;;;4.03;1.17;;;;;;;14.69;94.74;100466.38;4856171;29;20087;-87
2021/08/11 06:32:36;;;;;;;3.65;0.90;;;;;;;14.71;95.16;100475.13;4854598;29;20029;-86
2021/08/11 06:35:03;;;;;;;3.30;1.15;;;;;;;14.73;95.26;100467.59;4868579;29;20076;-86
2021/08/11 06:37:28;;;;;;;1.65;0.85;;;;;;;14.67;95.04;100463.03;4868296;29;20443;-86
2021/08/11 06:39:54;;;;;;;1.40;0.90;;;;;;;14.73;95.26;100474.91;4871626;29;20037;-86
2021/08/11 06:42:19;;;;;;;2.05;0.65;;;;;;;14.76;95.32;100481.75;4868884;29;20055;-87
2021/08/11 06:44:45;;;;;;;1.90;0.98;;;;;;;14.72;95.17;100475.94;4875206;29;20029;-86
2021/08/11 06:47:13;;;;;;;2.38;0.80;;;;;;;14.75;95.41;100486.34;4867592;29;20253;-86
2021/08/11 06:49:39;;;;;;;3.67;1.08;;;;;;;14.69;95.29;100487.19;4885132;29;20037;-87
2021/08/11 06:52:04;;;;;;;1.63;0.80;;;;;;;14.54;95.56;100467.63;4884803;29;20060;-86
2021/08/11 06:54:30;;;;;;;1.63;0.80;;;;;;;14.61;95.61;100495.53;4883557;29;20077;-86
2021/08/11 06:56:55;;;;;;;1.70;0.75;;;;;;;14.56;95.39;100495.31;4866084;29;20061;-86
2021/08/11 06:59:21;;;;;;;1.25;0.75;;;;;;;14.43;95.67;100483.41;4880545;29;20037;-88
2021/08/11 07:01:46;;;;;;;2.65;0.90;;;;;;;14.58;95.43;100502.19;4866649;29;20029;-87
2021/08/11 07:04:12;;;;;;;3.50;0.80;;;;;;;14.64;95.51;100500.53;4881534;29;20025;-90
2021/08/11 07:06:40;;;;;;;2.80;1.00;;;;;;;14.64;95.37;100495.13;4871620;29;20025;-88
2021/08/11 07:09:07;;;;;;;2.22;0.80;;;;;;;14.71;95.25;100510.31;4872683;29;20032;-88
2021/08/11 07:11:33;;;;;;;2.78;1.13;;;;;;;14.71;95.28;100501.34;4879469;29;20116;-86
2021/08/11 07:13:58;;;;;;;1.77;1.15;;;;;;;14.66;95.25;100498.41;4879097;29;20512;-86
2021/08/11 07:16:24;;;;;;;2.70;1.10;;;;;;;14.63;95.22;100501.53;4877779;29;20064;-89
2021/08/11 07:18:49;;;;;;;2.60;1.00;;;;;;;14.66;95.05;100511.94;4871271;29;20041;-86
2021/08/11 07:21:15;;;;;;;3.25;1.20;;;;;;;14.64;95.08;100516.75;4878707;29;20124;-86
2021/08/11 07:23:42;;;;;;;4.93;1.25;;;;;;;14.58;95.03;100512.16;4864618;29;20553;-86
2021/08/11 07:26:09;;;;;;;4.32;1.20;;;;;;;14.48;94.92;100507.97;4870032;29;20131;-89
2021/08/11 07:28:35;;;;;;;2.83;1.00;;;;;;;14.51;95.23;100529.19;4865772;29;20073;-90
2021/08/11 07:31:00;;;;;;;2.10;1.00;;;;;;;14.47;95.43;100527.97;4868805;29;20021;-87
2021/08/11 07:33:25;;;;;;;2.92;1.17;;;;;;;14.39;95.04;100538.97;4884460;29;20025;-86
2021/08/11 07:35:53;;;;;;;6.90;1.35;;;;;;;14.35;94.44;100548.53;4874656;29;20044;-85
2021/08/11 07:38:19;;;;;;;6.85;1.60;;;;;;;14.30;94.41;100549.16;4870976;29;20080;-86
2021/08/11 07:40:44;;;;;;;5.28;2.00;;;;;;;14.30;94.75;100559.13;4864638;29;20048;-86
2021/08/11 07:43:10;;;;;;;5.35;1.50;;;;;;;14.29;94.47;100547.50;4884680;29;20027;-89
2021/08/11 07:45:35;;;;;;;4.80;1.85;;;;;;;14.36;93.95;100550.19;4872607;29;20343;-87
2021/08/11 07:48:01;;;;;;;5.32;1.92;;;;;;;14.43;93.35;100553.75;4879815;29;20025;-86
2021/08/11 07:50:29;;;;;;;7.60;2.33;;;;;;;14.51;93.19;100556.25;4873058;29;20531;-86
2021/08/11 07:52:55;;;;;;;3.83;1.75;;;;;;;14.50;92.59;100546.50;4888783;29;20093;-87
2021/08/11 07:55:24;;;;;;;8.93;2.38;;;;;;;14.67;92.41;100563.16;4878931;29;20061;-86
2021/08/11 07:57:49;;;;;;;6.18;2.00;;;;;;;14.79;91.84;100566.09;4885181;29;20032;-89
2021/08/11 08:00:16;;;;;;;10.20;2.20;;;;;;;14.71;91.43;100555.47;4878332;29;20227;-87
2021/08/11 08:02:45;;;;;;;10.88;2.30;;;;;;;14.67;90.95;100546.09;4871630;29;20093;-90
2021/08/11 08:05:11;;;;;;;7.22;2.40;;;;;;;14.82;91.09;100573.81;4882194;29;20108;-86
2021/08/11 08:07:36;;;;;;;7.88;2.30;;;;;;;14.84;90.50;100577.09;4882510;29;20029;-83
2021/08/11 08:10:03;;;;;;;9.13;2.70;;;;;;;14.84;89.78;100579.81;4892418;29;20395;-86
2021/08/11 08:12:29;;;;;;;9.50;2.63;;;;;;;14.73;89.50;100559.63;4869282;29;20025;-89
2021/08/11 08:14:54;;;;;;;8.90;2.95;;;;;;;14.89;88.92;100573.78;4874281;29;20028;-85
2021/08/11 08:17:20;;;;;;;9.32;2.40;;;;;;;14.92;88.30;100586.91;4860665;29;20036;-85
2021/08/11 08:19:45;;;;;;;13.15;3.60;;;;;;;14.93;88.35;100573.16;4874887;29;20052;-86
2021/08/11 08:22:11;;;;;;;7.13;2.42;;;;;;;15.11;88.33;100588.78;4858140;29;20498;-86
2021/08/11 08:24:36;;;;;;;6.85;2.50;;;;;;;15.13;88.27;100565.00;4860030;29;20122;-85
2021/08/11 08:27:02;;;;;;;13.55;4.38;;;;;;;15.37;87.91;100579.78;4858731;29;20033;-85
2021/08/11 08:29:28;;;;;;;8.52;2.72;;;;;;;15.59;86.74;100585.78;4874269;29;20039;-86
2021/08/11 08:31:53;;;;;;;9.50;2.88;;;;;;;15.75;86.17;100602.66;4867280;29;20036;-86
2021/08/11 08:34:19;;;;;;;10.93;2.70;;;;;;;15.81;85.44;100607.19;4865012;29;20025;-86
2021/08/11 08:36:44;;;;;;;13.40;2.67;;;;;;;16.04;84.75;100604.00;4860433;29;20029;-87
2021/08/11 08:39:10;;;;;;;11.75;2.88;;;;;;;16.37;83.04;100592.13;4865731;29;20028;-87
2021/08/11 08:41:36;;;;;;;16.30;3.10;;;;;;;16.61;82.95;100604.06;4867838;29;20061;-86
2021/08/11 08:44:02;;;;;;;11.27;2.72;;;;;;;16.66;81.87;100618.66;4858703;29;20043;-86
2021/08/11 08:46:28;;;;;;;11.30;2.92;;;;;;;16.50;81.01;100608.31;4870034;29;20588;-85
2021/08/11 08:48:54;;;;;;;12.05;3.05;;;;;;;16.40;80.91;100597.09;4857978;29;20033;-85
2021/08/11 08:51:21;;;;;;;9.20;2.72;;;;;;;16.45;81.03;100611.69;4865341;29;20025;-86
2021/08/11 08:53:47;;;;;;;15.98;2.80;;;;;;;16.49;81.12;100615.63;4873205;29;20397;-87
2021/08/11 08:56:13;;;;;;;9.07;2.38;;;;;;;16.46;80.59;100623.41;4863653;29;20052;-86
2021/08/11 08:58:39;;;;;;;12.85;3.22;;;;;;;16.39;80.53;100618.00;4864022;29;20053;-86
2021/08/11 09:01:05;;;;;;;11.15;2.60;;;;;;;16.33;80.86;100593.63;4865055;29;20553;-86
2021/08/11 09:03:30;;;;;;;10.05;2.80;;;;;;;16.58;80.15;100624.34;4856914;29;20128;-85
2021/08/11 09:05:55;;;;;;;13.68;2.95;;;;;;;16.69;80.48;100623.63;4862431;29;20080;-86
2021/08/11 09:08:21;;;;;;;12.25;3.03;;;;;;;16.79;80.21;100634.06;4860873;29;20494;-87
2021/08/11 09:10:46;;;;;;;12.27;3.47;;;;;;;16.81;80.07;100636.56;4871325;29;20116;-87
2021/08/11 09:13:19;;;;;;;17.52;3.10;;;;;;;16.70;79.43;100630.75;4860360;29;20021;-87
2021/08/11 09:15:54;;;;;;;14.40;2.85;;;;;;;16.68;79.77;100635.56;4866569;29;20390;-87
2021/08/11 09:18:24;;;;;;;13.75;2.97;;;;;;;16.67;79.87;100628.47;4871519;29;20120;-87
2021/08/11 09:20:51;;;;;;;14.02;3.65;;;;;;;16.71;79.72;100635.13;4875834;29;20080;-87
2021/08/11 09:23:33;;;;;;;15.43;3.55;;;;;;;16.65;80.38;100627.03;4871759;29;20069;-87
2021/08/11 09:26:01;;;;;;;9.77;2.97;;;;;;;16.78;81.01;100632.41;4859927;29;20104;-87
2021/08/11 09:28:32;;;;;;;10.40;2.60;;;;;;;16.87;80.06;100633.78;4858484;29;20041;-86
2021/08/11 09:30:58;;;;;;;11.90;2.72;;;;;;;16.89;78.98;100628.13;4866974;29;20032;-86
2021/08/11 09:33:27;;;;;;;9.63;2.83;;;;;;;16.96;78.99;100630.78;4875469;29;20088;-86
2021/08/11 09:35:53;;;;;;;14.10;2.70;;;;;;;17.14;78.72;100630.84;4870999;29;20151;-87
2021/08/11 09:38:20;;;;;;;10.50;3.00;;;;;;;17.31;77.90;100642.00;4870847;29;20087;-86
2021/08/11 09:40:46;;;;;;;9.35;2.42;;;;;;;17.62;76.78;100642.94;4869669;29;20033;-86
2021/08/11 09:43:16;;;;;;;13.82;3.38;;;;;;;17.84;76.58;100643.38;4874290;29;20093;-87
2021/08/11 09:45:53;;;;;;;11.68;2.65;;;;;;;18.14;75.17;100651.59;4864336;29;20152;-87
2021/08/11 09:48:20;;;;;;;10.40;2.15;;;;;;;18.15;74.22;100647.81;4856872;29;20040;-86
2021/08/11 09:50:51;;;;;;;12.52;2.75;;;;;;;17.99;74.59;100641.94;4857351;29;20494;-86
2021/08/11 09:53:38;;;;;;;13.15;3.25;;;;;;;17.70;71.84;100651.66;4880528;29;20043;-86
2021/08/11 09:56:05;;;;;;;13.50;2.10;;;;;;;17.69;70.91;100655.41;4857070;29;20025;-86
2021/08/11 09:58:45;;;;;;;10.52;2.75;;;;;;;17.74;69.71;100658.28;4851391;29;20060;-85
2021/08/11 10:01:16;;;;;;;10.73;3.88;;;;;;;17.91;68.28;100660.44;4866664;29;20045;-86
2021/08/11 10:04:07;;;;;;;11.57;2.60;;;;;;;17.95;68.15;100665.22;4887288;29;20041;-85
2021/08/11 10:06:33;;;;;;;14.73;2.80;;;;;;;18.33;68.57;100666.00;4867805;29;20043;-85
2021/08/11 10:09:26;;;;;;;10.25;2.38;;;;;;;18.19;67.61;100662.63;4852262;29;20081;-86
2021/08/11 10:11:58;;;;;;;;;;;;;;;17.89;67.71;100665.28;4857885;29;20048;-84
2021/08/11 10:14:28;;;;;;;10.00;2.22;;;;;;;17.55;68.81;100671.03;4866354;29;19922;-86
2021/08/11 10:16:55;;;;;;;10.23;2.00;;;;;;;17.88;68.20;100678.03;4861500;29;20397;-86
2021/08/11 10:19:27;;;;;;;9.88;2.45;;;;;;;18.41;67.54;100680.13;4889653;29;20032;-85
2021/08/11 10:22:22;;;;;;;16.02;3.10;;;;;;;18.96;66.40;100665.56;4867021;29;20057;-86
2021/08/11 10:24:52;;;;;;;8.85;2.38;;;;;;;19.73;63.83;100668.25;4870787;29;20410;-86
2021/08/11 10:27:19;;;;;;;11.55;2.22;;;;;;;19.64;62.89;100652.47;4870407;29;20053;-87
2021/08/11 10:29:47;;;;;;;12.75;2.83;;;;;;;19.36;62.71;100673.06;4871380;29;20036;-87
2021/08/11 10:32:13;;;;;;;8.20;2.17;;;;;;;19.23;63.40;100670.56;4887100;29;20025;-84
2021/08/11 10:34:40;;;;;;;11.68;2.17;;;;;;;18.84;63.44;100676.44;4876293;29;20108;-86
2021/08/11 10:37:06;;;;;;;14.27;2.50;;;;;;;18.94;61.55;100651.31;4874754;29;20029;-87
2021/08/11 10:39:32;;;;;;;10.82;2.47;;;;;;;19.39;61.72;100672.59;4872780;29;20290;-86
2021/08/11 10:42:01;;;;;;;12.23;2.30;;;;;;;19.68;59.59;100673.56;4861296;29;20025;-85
2021/08/11 10:44:27;;;;;;;11.10;2.13;;;;;;;19.82;58.90;100674.19;4873372;29;20077;-83
2021/08/11 10:46:55;;;;;;;12.85;2.50;;;;;;;19.96;58.43;100675.56;4859735;29;20026;-83
2021/08/11 10:49:21;;;;;;;11.10;2.53;;;;;;;20.02;59.41;100684.69;4866670;29;20073;-83
2021/08/11 10:51:49;;;;;;;14.93;2.53;;;;;;;19.69;59.17;100675.25;4877003;29;20080;-83
2021/08/11 10:54:18;;;;;;;16.88;3.05;;;;;;;19.22;59.46;100677.09;4866601;29;20040;-84
2021/08/11 10:56:47;;;;;;;11.60;2.00;;;;;;;19.01;60.10;100694.84;4866891;29;20049;-83
2021/08/11 10:59:22;;;;;;;13.00;2.50;;;;;;;18.74;60.38;100694.38;4864592;29;20108;-83
2021/08/11 11:01:57;;;;;;;11.30;2.28;;;;;;;19.09;59.18;100697.22;4870518;29;20386;-84
2021/08/11 11:04:43;;;;;;;7.35;2.05;;;;;;;19.60;58.55;100698.47;4865452;29;20029;-84
2021/08/11 11:07:09;;;;;;;9.70;2.03;;;;;;;20.19;56.48;100699.28;4876479;29;20029;-85
2021/08/11 11:09:34;;;;;;;7.88;2.05;;;;;;;20.50;56.90;100697.13;4873201;29;20028;-82
2021/08/11 11:12:19;;;;;;;12.32;2.00;;;;;;;20.24;55.52;100706.72;4866705;29;20032;-84
2021/08/11 11:14:50;;;;;;;16.05;2.47;;;;;;;19.85;54.57;100697.44;4883079;29;20496;-83
2021/08/11 11:17:16;;;;;;;15.02;1.98;;;;;;;19.44;55.06;100694.53;4885654;29;20040;-85
2021/08/11 11:20:04;;;;;;;12.60;2.40;;;;;;;19.28;55.51;100706.13;4865098;29;20407;-84
2021/08/11 11:22:51;;;;;;;12.52;3.60;;;;;;;19.01;56.32;100713.91;4871180;29;20029;-84
2021/08/11 11:25:18;;;;;;;11.73;1.95;;;;;;;18.89;58.01;100709.25;4869486;29;20043;-84
2021/08/11 11:27:44;;;;;;;11.80;2.30;;;;;;;18.99;58.54;100710.56;4864592;29;20084;-84
2021/08/11 11:30:12;;;;;;;9.20;2.25;;;;;;;18.92;57.53;100718.00;4882397;29;20084;-83